Strona główna
METAR-TAF:

METAR-TAF

Lotnisko :

Port lotniczy Al-Wadżh

Al Wajh, Arabia Saudyjska

Szerokość geograficzna: 26-12N, Długość geograficzna: 036-28E, wysokość: 20 m

Aktualna obserwacja pogody

Raport powstał 20 minut temu, godzina 01:00 UTC
Wiatr 3 kt od północ
Temperatura 22°C
Wilgotność 33%
Ciśnienie 1009 hPa
Widzialność 10 km lub więcej
Brak chmur poniżej 1500 m i brak chmur cumulonimbus

METAR: OEWJ 050100Z 36003KT CAVOK 22/05 Q1009 NOSIG

czas: 04:20 (01:20 UTC)

Prognoza

Raport powstał 14 godziny i 20 minut temu, godzina 11:00 UTC
Prognoza ważna od 04 godzina 12 UTC do 05 godzina 18 UTC
Wiatr 14 kt od północno-północny zachód
Widzialność 10 km lub więcej
Brak chmur poniżej 1500 m i brak chmur cumulonimbus
Stopniowe zmiany
od 04 godzina 18 UTC do 04 godzina 20 UTC
Wiatr 3 kt z kierunków zmiennych
Stopniowe zmiany
od 05 godzina 06 UTC do 05 godzina 08 UTC
Wiatr 12 kt od zachodnio-północny zachód

TAF: OEWJ 041100Z 0412/0518 33014KT CAVOK BECMG 0418/0420 VRB03KT BECMG 0506/0508 30012KT

Obserwacja i prognoza pogody dla ponad 4000 lotnisk (raport METAR i TAF).

Dostępne stacje oznaczono żółtymi i czerwonymi punktami na mapie.

Najedź kursorem aby zobaczyć nazwę stacji.

Kliknij aby zobaczyć obserwacje i prognozy pogody.

Aby zmienić mapę: kliknij na zielony przycisk z czarnym krzyżykiem, aby powiększyć; na zielony przycisk z myślnikiem, aby pomniejszyć; na zielone strzałki, aby przejść do map sąsiednich.


METAR-TAF: